createdAt,value
2022-11-27T00:05:00.701Z,20.09
2022-11-27T00:11:26.795Z,20.04
2022-11-27T00:17:49.855Z,20.05
2022-11-27T00:24:17.722Z,19.99
2022-11-27T00:30:39.805Z,19.99
2022-11-27T00:37:15.862Z,20.03
2022-11-27T00:43:44.783Z,20.08
2022-11-27T00:50:08.804Z,20.01
2022-11-27T00:56:41.209Z,19.97
2022-11-27T01:03:06.969Z,20.02
2022-11-27T01:09:32.332Z,20.05
2022-11-27T01:16:04.859Z,20.04
2022-11-27T01:22:34.903Z,20.02
2022-11-27T01:29:00.993Z,19.98
2022-11-27T01:35:26.982Z,19.97
2022-11-27T01:41:56.735Z,20.01
2022-11-27T01:48:44.101Z,20.02
2022-11-27T01:55:32.197Z,19.99
2022-11-27T02:02:26.888Z,20.04
2022-11-27T02:09:06.585Z,19.98
2022-11-27T02:16:15.128Z,19.97
2022-11-27T02:23:12.536Z,19.99
2022-11-27T02:30:12.823Z,19.95
2022-11-27T02:37:06.927Z,19.98
2022-11-27T02:44:16.030Z,19.96
2022-11-27T02:51:00.875Z,19.95
2022-11-27T02:57:47.820Z,20
2022-11-27T03:04:33.828Z,19.9
2022-11-27T03:11:45.903Z,19.91
2022-11-27T03:18:34.300Z,19.94
2022-11-27T03:25:18.012Z,19.87
2022-11-27T03:31:54.861Z,19.88
2022-11-27T03:38:24.242Z,19.89
2022-11-27T03:45:26.030Z,19.83
2022-11-27T03:52:35.285Z,19.9
2022-11-27T03:59:48.159Z,19.89
2022-11-27T04:06:27.090Z,19.88
2022-11-27T04:12:50.877Z,19.85
2022-11-27T04:19:17.942Z,19.85
2022-11-27T04:25:44.280Z,19.88
2022-11-27T04:32:09.266Z,19.85
2022-11-27T04:38:35.458Z,19.82
2022-11-27T04:44:59.108Z,19.88
2022-11-27T04:51:23.796Z,19.82
2022-11-27T04:57:58.328Z,19.84
2022-11-27T05:04:23.183Z,19.83
2022-11-27T05:11:02.003Z,20.04
2022-11-27T05:17:35.156Z,20.96
2022-11-27T05:24:06.327Z,21.46
2022-11-27T05:30:33.163Z,21.75
2022-11-27T05:36:56.210Z,22.05
2022-11-27T05:43:23.084Z,22.26
2022-11-27T05:49:51.031Z,22.07
2022-11-27T05:56:12.944Z,21.65
2022-11-27T06:02:45.222Z,21.59
2022-11-27T06:09:18.298Z,21.37
2022-11-27T06:15:50.952Z,21.49
2022-11-27T06:22:20.073Z,21.41
2022-11-27T06:28:49.031Z,21.5
2022-11-27T06:35:20.321Z,21.47
2022-11-27T06:41:44.677Z,21.33
2022-11-27T06:48:08.528Z,21.29
2022-11-27T06:54:37.033Z,21.27
2022-11-27T07:01:05.236Z,21.23
2022-11-27T07:07:41.053Z,21.07
2022-11-27T07:14:18.052Z,21.03
2022-11-27T07:20:46.297Z,21.27
2022-11-27T07:27:20.982Z,21.37
2022-11-27T07:33:50.966Z,21.34
2022-11-27T07:40:20.943Z,21.27
2022-11-27T07:46:50.986Z,21.31
2022-11-27T07:53:17.779Z,21.42
2022-11-27T07:59:50.524Z,21.34
2022-11-27T08:06:22.036Z,21.4
2022-11-27T08:12:47.939Z,21.53
2022-11-27T08:19:15.101Z,21.66
2022-11-27T08:25:35.093Z,21.56
2022-11-27T08:32:04.075Z,21.53
2022-11-27T08:38:29.126Z,21.51
2022-11-27T08:44:55.092Z,21.57
2022-11-27T08:51:19.082Z,21.42
2022-11-27T08:57:42.794Z,21.36
2022-11-27T09:04:28.013Z,21.27
2022-11-27T09:10:59.381Z,21.15
2022-11-27T09:17:24.074Z,21.21
2022-11-27T09:23:53.343Z,21.33
2022-11-27T09:30:28.060Z,21.51
2022-11-27T09:37:03.372Z,21.43
2022-11-27T09:43:37.380Z,21.47
2022-11-27T09:50:41.426Z,21.52
2022-11-27T09:57:36.015Z,21.54
2022-11-27T10:04:30.345Z,21.58
2022-11-27T10:11:36.537Z,21.56
2022-11-27T10:18:40.570Z,21.52
2022-11-27T10:25:32.760Z,21.5
2022-11-27T10:39:58.256Z,21.58
2022-11-27T10:46:56.232Z,21.5
2022-11-27T10:53:36.095Z,21.47
2022-11-27T11:00:32.153Z,21.37
2022-11-27T11:07:22.459Z,21.28
2022-11-27T11:14:16.013Z,21.28
2022-11-27T11:21:03.035Z,21.33
2022-11-27T11:27:54.292Z,21.4
2022-11-27T11:34:57.760Z,21.55
2022-11-27T11:41:52.505Z,21.5
2022-11-27T11:48:37.361Z,21.43
2022-11-27T11:55:41.136Z,21.41
2022-11-27T12:02:51.970Z,21.62
2022-11-27T12:09:49.525Z,21.64
2022-11-27T12:16:47.346Z,21.5
2022-11-27T12:24:01.560Z,21.54
2022-11-27T12:31:05.239Z,21.63
2022-11-27T12:38:08.616Z,21.53
2022-11-27T12:45:07.155Z,21.43
2022-11-27T12:52:23.356Z,21.32
2022-11-27T12:59:31.236Z,21.28
2022-11-27T13:06:27.283Z,21.2
2022-11-27T13:13:26.190Z,21.17
2022-11-27T13:20:24.160Z,21.09
2022-11-27T13:27:10.146Z,21.07
2022-11-27T13:34:11.314Z,21.23
2022-11-27T13:41:01.099Z,21.13
2022-11-27T13:47:48.717Z,21.18
2022-11-27T13:54:50.768Z,21.23
2022-11-27T14:01:23.261Z,21.25
2022-11-27T14:08:19.177Z,21.27
2022-11-27T14:15:05.174Z,21.23
2022-11-27T14:22:08.717Z,21.29
2022-11-27T14:29:14.110Z,21.21
2022-11-27T14:36:03.566Z,21.15
2022-11-27T14:42:52.010Z,21.07
2022-11-27T14:49:37.151Z,21.01
2022-11-27T14:56:09.238Z,21.03
2022-11-27T15:02:55.671Z,20.87
2022-11-27T15:09:52.503Z,20.92
2022-11-27T15:16:55.728Z,20.86
2022-11-27T15:23:42.202Z,20.77
2022-11-27T15:30:46.489Z,20.73
2022-11-27T15:37:36.613Z,20.71
2022-11-27T15:44:22.211Z,20.65
2022-11-27T15:51:12.362Z,20.71
2022-11-27T15:57:37.474Z,20.61
2022-11-27T16:03:59.762Z,20.59
2022-11-27T16:10:23.844Z,20.59
2022-11-27T16:16:47.456Z,20.56
2022-11-27T16:23:14.211Z,20.53
2022-11-27T16:29:44.825Z,20.53
2022-11-27T16:36:09.301Z,20.44
2022-11-27T16:42:34.653Z,20.47
2022-11-27T16:49:03.094Z,20.46
2022-11-27T16:55:43.384Z,20.45
2022-11-27T17:02:10.399Z,20.42
2022-11-27T17:08:43.308Z,20.41
2022-11-27T17:15:05.357Z,20.43
2022-11-27T17:21:30.166Z,20.41
2022-11-27T17:28:04.140Z,20.4
2022-11-27T17:34:43.545Z,20.42
2022-11-27T17:41:07.297Z,20.41
2022-11-27T17:47:42.267Z,20.38
2022-11-27T17:54:14.692Z,20.41
2022-11-27T18:00:46.385Z,20.47
2022-11-27T18:07:23.363Z,20.33
2022-11-27T18:13:50.378Z,20.32
2022-11-27T18:20:27.721Z,20.31
2022-11-27T18:27:07.964Z,20.32
2022-11-27T18:33:48.709Z,20.29
2022-11-27T18:40:19.249Z,20.29
2022-11-27T18:46:50.261Z,20.27
2022-11-27T18:53:22.410Z,20.28
2022-11-27T19:00:08.185Z,20.25
2022-11-27T19:06:39.352Z,20.21
2022-11-27T19:13:15.545Z,20.23
2022-11-27T19:19:55.066Z,20.23
2022-11-27T19:26:24.298Z,20.2
2022-11-27T19:33:02.828Z,20.19
2022-11-27T19:39:31.291Z,20.15
2022-11-27T19:45:59.415Z,20.14
2022-11-27T19:52:30.342Z,20.15
2022-11-27T19:58:56.649Z,20.19
2022-11-27T20:05:38.582Z,20.16
2022-11-27T20:12:09.742Z,20.12
2022-11-27T20:18:33.255Z,20.09
2022-11-27T20:25:18.758Z,20.15
2022-11-27T20:31:42.393Z,20.14
2022-11-27T20:38:13.774Z,20.14
2022-11-27T20:44:38.342Z,20.09
2022-11-27T20:51:05.390Z,20.1
2022-11-27T20:57:35.296Z,20.07
2022-11-27T21:03:55.434Z,20.03
2022-11-27T21:10:26.426Z,20.08
2022-11-27T21:16:51.505Z,20.04
2022-11-27T21:23:16.209Z,20.09
2022-11-27T21:29:43.679Z,20.01
2022-11-27T21:36:09.441Z,20.06
2022-11-27T21:42:44.458Z,19.98
2022-11-27T21:49:18.761Z,20.01
2022-11-27T21:55:48.329Z,19.94
2022-11-27T22:02:13.623Z,19.97
2022-11-27T22:08:39.416Z,20
2022-11-27T22:15:25.753Z,20.01
2022-11-27T22:21:55.814Z,19.93
2022-11-27T22:28:18.347Z,19.9
2022-11-27T22:34:46.725Z,19.91
2022-11-27T22:41:19.431Z,19.94
2022-11-27T22:47:44.404Z,19.88
2022-11-27T22:54:16.332Z,19.91
2022-11-27T23:00:37.346Z,19.92
2022-11-27T23:07:06.338Z,19.89
2022-11-27T23:13:33.865Z,19.9
2022-11-27T23:19:59.434Z,19.89
2022-11-27T23:26:24.700Z,19.82
2022-11-27T23:32:56.849Z,19.8
2022-11-27T23:39:21.814Z,19.79
2022-11-27T23:45:50.287Z,19.79
2022-11-27T23:52:21.810Z,19.79
2022-11-27T23:58:53.355Z,19.77
